sensor_id;sensor_type;location;lat;lon;timestamp;P1;durP1;ratioP1;P2;durP2;ratioP2
3747;SDS011;1889;50.058;8.688;2022-10-16T00:01:51;1.57;;;1.47;;
3747;SDS011;1889;50.058;8.688;2022-10-16T00:04:21;2.08;;;1.60;;
3747;SDS011;1889;50.058;8.688;2022-10-16T00:06:50;3.08;;;1.65;;
3747;SDS011;1889;50.058;8.688;2022-10-16T00:09:19;1.72;;;1.42;;
3747;SDS011;1889;50.058;8.688;2022-10-16T00:11:49;1.45;;;1.35;;
3747;SDS011;1889;50.058;8.688;2022-10-16T00:14:18;1.67;;;1.40;;
3747;SDS011;1889;50.058;8.688;2022-10-16T00:16:47;1.75;;;1.45;;
3747;SDS011;1889;50.058;8.688;2022-10-16T00:19:17;1.77;;;1.20;;
3747;SDS011;1889;50.058;8.688;2022-10-16T00:21:46;2.15;;;1.37;;
3747;SDS011;1889;50.058;8.688;2022-10-16T00:24:15;3.00;;;1.40;;
3747;SDS011;1889;50.058;8.688;2022-10-16T00:26:44;1.72;;;1.27;;
3747;SDS011;1889;50.058;8.688;2022-10-16T00:29:15;1.92;;;1.40;;
3747;SDS011;1889;50.058;8.688;2022-10-16T00:31:46;1.20;;;1.10;;
3747;SDS011;1889;50.058;8.688;2022-10-16T00:34:15;1.85;;;1.52;;
3747;SDS011;1889;50.058;8.688;2022-10-16T00:36:45;1.02;;;1.00;;
3747;SDS011;1889;50.058;8.688;2022-10-16T00:39:14;1.10;;;1.00;;
3747;SDS011;1889;50.058;8.688;2022-10-16T00:41:43;1.40;;;1.30;;
3747;SDS011;1889;50.058;8.688;2022-10-16T00:47:21;1.17;;;1.12;;
3747;SDS011;1889;50.058;8.688;2022-10-16T00:49:59;1.32;;;1.10;;
3747;SDS011;1889;50.058;8.688;2022-10-16T00:52:30;1.57;;;1.15;;
3747;SDS011;1889;50.058;8.688;2022-10-16T00:55:00;1.17;;;1.05;;
3747;SDS011;1889;50.058;8.688;2022-10-16T00:57:31;1.00;;;1.00;;
3747;SDS011;1889;50.058;8.688;2022-10-16T01:00:02;1.20;;;1.10;;
3747;SDS011;1889;50.058;8.688;2022-10-16T01:02:33;1.10;;;1.00;;
3747;SDS011;1889;50.058;8.688;2022-10-16T01:05:02;1.27;;;0.80;;
3747;SDS011;1889;50.058;8.688;2022-10-16T01:07:48;1.85;;;1.00;;
3747;SDS011;1889;50.058;8.688;2022-10-16T01:10:30;1.35;;;1.20;;
3747;SDS011;1889;50.058;8.688;2022-10-16T01:13:09;1.50;;;1.40;;
3747;SDS011;1889;50.058;8.688;2022-10-16T01:15:46;1.00;;;1.00;;
3747;SDS011;1889;50.058;8.688;2022-10-16T01:21:04;1.00;;;1.00;;
3747;SDS011;1889;50.058;8.688;2022-10-16T01:32:09;1.10;;;1.10;;
3747;SDS011;1889;50.058;8.688;2022-10-16T01:37:40;1.32;;;0.85;;
3747;SDS011;1889;50.058;8.688;2022-10-16T01:40:15;2.42;;;1.00;;
3747;SDS011;1889;50.058;8.688;2022-10-16T01:42:52;0.80;;;0.80;;
3747;SDS011;1889;50.058;8.688;2022-10-16T01:45:22;0.60;;;0.57;;
3747;SDS011;1889;50.058;8.688;2022-10-16T01:47:52;0.70;;;0.70;;
3747;SDS011;1889;50.058;8.688;2022-10-16T01:50:21;0.70;;;0.70;;
3747;SDS011;1889;50.058;8.688;2022-10-16T01:52:52;1.47;;;0.68;;
3747;SDS011;1889;50.058;8.688;2022-10-16T01:55:27;0.70;;;0.70;;
3747;SDS011;1889;50.058;8.688;2022-10-16T01:57:57;0.60;;;0.60;;
3747;SDS011;1889;50.058;8.688;2022-10-16T02:00:29;0.73;;;0.73;;
3747;SDS011;1889;50.058;8.688;2022-10-16T02:02:59;0.90;;;0.60;;
3747;SDS011;1889;50.058;8.688;2022-10-16T02:05:32;1.27;;;0.88;;
3747;SDS011;1889;50.058;8.688;2022-10-16T02:08:08;0.57;;;0.43;;
3747;SDS011;1889;50.058;8.688;2022-10-16T02:10:38;0.90;;;0.80;;
3747;SDS011;1889;50.058;8.688;2022-10-16T02:13:10;0.60;;;0.60;;
3747;SDS011;1889;50.058;8.688;2022-10-16T02:15:41;0.60;;;0.60;;
3747;SDS011;1889;50.058;8.688;2022-10-16T02:18:11;0.50;;;0.50;;
3747;SDS011;1889;50.058;8.688;2022-10-16T02:21:28;0.60;;;0.60;;
3747;SDS011;1889;50.058;8.688;2022-10-16T02:23:17;0.40;;;0.40;;
3747;SDS011;1889;50.058;8.688;2022-10-16T02:25:47;1.95;;;0.53;;
3747;SDS011;1889;50.058;8.688;2022-10-16T02:28:22;0.50;;;0.50;;
3747;SDS011;1889;50.058;8.688;2022-10-16T02:30:56;0.47;;;0.47;;
3747;SDS011;1889;50.058;8.688;2022-10-16T02:33:29;1.20;;;0.57;;
3747;SDS011;1889;50.058;8.688;2022-10-16T02:36:00;0.57;;;0.57;;
3747;SDS011;1889;50.058;8.688;2022-10-16T02:38:30;0.60;;;0.60;;
3747;SDS011;1889;50.058;8.688;2022-10-16T02:40:59;1.22;;;0.72;;
3747;SDS011;1889;50.058;8.688;2022-10-16T02:43:28;0.50;;;0.50;;
3747;SDS011;1889;50.058;8.688;2022-10-16T02:45:58;1.17;;;0.40;;
3747;SDS011;1889;50.058;8.688;2022-10-16T02:48:27;0.60;;;0.60;;
3747;SDS011;1889;50.058;8.688;2022-10-16T02:50:57;1.05;;;0.70;;
3747;SDS011;1889;50.058;8.688;2022-10-16T02:53:26;0.57;;;0.50;;
3747;SDS011;1889;50.058;8.688;2022-10-16T02:55:56;0.60;;;0.60;;
3747;SDS011;1889;50.058;8.688;2022-10-16T02:58:25;0.63;;;0.60;;
3747;SDS011;1889;50.058;8.688;2022-10-16T03:00:55;0.50;;;0.40;;
3747;SDS011;1889;50.058;8.688;2022-10-16T03:03:24;1.02;;;0.60;;
3747;SDS011;1889;50.058;8.688;2022-10-16T03:05:53;0.50;;;0.50;;
3747;SDS011;1889;50.058;8.688;2022-10-16T03:08:22;0.67;;;0.67;;
3747;SDS011;1889;50.058;8.688;2022-10-16T03:10:52;1.10;;;0.57;;
3747;SDS011;1889;50.058;8.688;2022-10-16T03:13:21;0.60;;;0.60;;
3747;SDS011;1889;50.058;8.688;2022-10-16T03:15:50;0.50;;;0.50;;
3747;SDS011;1889;50.058;8.688;2022-10-16T03:18:19;0.70;;;0.70;;
3747;SDS011;1889;50.058;8.688;2022-10-16T03:20:48;0.43;;;0.43;;
3747;SDS011;1889;50.058;8.688;2022-10-16T03:23:17;0.60;;;0.60;;
3747;SDS011;1889;50.058;8.688;2022-10-16T03:25:46;0.87;;;0.60;;
3747;SDS011;1889;50.058;8.688;2022-10-16T03:28:15;0.40;;;0.40;;
3747;SDS011;1889;50.058;8.688;2022-10-16T03:30:44;1.23;;;0.67;;
3747;SDS011;1889;50.058;8.688;2022-10-16T03:33:13;1.27;;;0.88;;
3747;SDS011;1889;50.058;8.688;2022-10-16T03:35:43;1.45;;;0.68;;
3747;SDS011;1889;50.058;8.688;2022-10-16T03:38:15;0.50;;;0.50;;
3747;SDS011;1889;50.058;8.688;2022-10-16T03:40:44;0.62;;;0.62;;
3747;SDS011;1889;50.058;8.688;2022-10-16T03:43:13;0.90;;;0.63;;
3747;SDS011;1889;50.058;8.688;2022-10-16T03:45:42;0.77;;;0.77;;
3747;SDS011;1889;50.058;8.688;2022-10-16T03:48:11;2.10;;;0.80;;
3747;SDS011;1889;50.058;8.688;2022-10-16T03:50:40;0.60;;;0.60;;
3747;SDS011;1889;50.058;8.688;2022-10-16T03:53:09;0.70;;;0.70;;
3747;SDS011;1889;50.058;8.688;2022-10-16T03:55:40;4.87;;;0.78;;
3747;SDS011;1889;50.058;8.688;2022-10-16T03:58:10;0.57;;;0.57;;
3747;SDS011;1889;50.058;8.688;2022-10-16T04:00:41;1.45;;;0.60;;
3747;SDS011;1889;50.058;8.688;2022-10-16T04:03:10;0.87;;;0.60;;
3747;SDS011;1889;50.058;8.688;2022-10-16T04:05:40;1.40;;;0.80;;
3747;SDS011;1889;50.058;8.688;2022-10-16T04:08:09;1.05;;;0.75;;
3747;SDS011;1889;50.058;8.688;2022-10-16T04:10:38;1.10;;;0.88;;
3747;SDS011;1889;50.058;8.688;2022-10-16T04:13:07;0.70;;;0.70;;
3747;SDS011;1889;50.058;8.688;2022-10-16T04:15:36;0.80;;;0.80;;
3747;SDS011;1889;50.058;8.688;2022-10-16T04:18:06;0.53;;;0.53;;
3747;SDS011;1889;50.058;8.688;2022-10-16T04:20:35;1.22;;;1.10;;
3747;SDS011;1889;50.058;8.688;2022-10-16T04:23:04;0.80;;;0.80;;
3747;SDS011;1889;50.058;8.688;2022-10-16T04:25:34;1.15;;;1.05;;
3747;SDS011;1889;50.058;8.688;2022-10-16T04:28:03;1.15;;;1.05;;
3747;SDS011;1889;50.058;8.688;2022-10-16T04:30:32;0.70;;;0.70;;
3747;SDS011;1889;50.058;8.688;2022-10-16T04:33:01;0.90;;;0.70;;
3747;SDS011;1889;50.058;8.688;2022-10-16T04:35:30;0.75;;;0.75;;
3747;SDS011;1889;50.058;8.688;2022-10-16T04:37:59;0.87;;;0.83;;
3747;SDS011;1889;50.058;8.688;2022-10-16T04:40:29;1.00;;;0.80;;
3747;SDS011;1889;50.058;8.688;2022-10-16T04:43:03;0.98;;;0.88;;
3747;SDS011;1889;50.058;8.688;2022-10-16T04:45:32;0.80;;;0.80;;
3747;SDS011;1889;50.058;8.688;2022-10-16T04:48:01;0.80;;;0.80;;
3747;SDS011;1889;50.058;8.688;2022-10-16T04:50:31;0.70;;;0.70;;
3747;SDS011;1889;50.058;8.688;2022-10-16T04:53:00;1.10;;;1.00;;
3747;SDS011;1889;50.058;8.688;2022-10-16T04:55:29;0.80;;;0.80;;
3747;SDS011;1889;50.058;8.688;2022-10-16T04:57:58;0.70;;;0.70;;
3747;SDS011;1889;50.058;8.688;2022-10-16T05:00:27;0.97;;;0.73;;
3747;SDS011;1889;50.058;8.688;2022-10-16T05:02:56;0.87;;;0.73;;
3747;SDS011;1889;50.058;8.688;2022-10-16T05:05:27;0.70;;;0.70;;
3747;SDS011;1889;50.058;8.688;2022-10-16T05:07:56;0.70;;;0.70;;
3747;SDS011;1889;50.058;8.688;2022-10-16T05:10:26;1.35;;;0.70;;
3747;SDS011;1889;50.058;8.688;2022-10-16T05:12:55;1.20;;;1.10;;
3747;SDS011;1889;50.058;8.688;2022-10-16T05:15:24;0.73;;;0.73;;
3747;SDS011;1889;50.058;8.688;2022-10-16T05:17:53;0.80;;;0.80;;
3747;SDS011;1889;50.058;8.688;2022-10-16T05:20:23;0.60;;;0.60;;
3747;SDS011;1889;50.058;8.688;2022-10-16T05:22:52;0.83;;;0.83;;
3747;SDS011;1889;50.058;8.688;2022-10-16T05:25:21;0.70;;;0.70;;
3747;SDS011;1889;50.058;8.688;2022-10-16T05:27:50;0.80;;;0.80;;
3747;SDS011;1889;50.058;8.688;2022-10-16T05:30:19;0.70;;;0.70;;
3747;SDS011;1889;50.058;8.688;2022-10-16T05:32:49;1.50;;;1.00;;
3747;SDS011;1889;50.058;8.688;2022-10-16T05:35:19;1.17;;;0.73;;
3747;SDS011;1889;50.058;8.688;2022-10-16T05:37:48;0.93;;;0.80;;
3747;SDS011;1889;50.058;8.688;2022-10-16T05:40:18;0.57;;;0.57;;
3747;SDS011;1889;50.058;8.688;2022-10-16T05:42:47;0.90;;;0.72;;
3747;SDS011;1889;50.058;8.688;2022-10-16T05:45:16;0.80;;;0.80;;
3747;SDS011;1889;50.058;8.688;2022-10-16T05:47:45;0.80;;;0.80;;
3747;SDS011;1889;50.058;8.688;2022-10-16T05:50:14;1.20;;;1.00;;
3747;SDS011;1889;50.058;8.688;2022-10-16T05:52:44;1.67;;;1.17;;
3747;SDS011;1889;50.058;8.688;2022-10-16T05:55:13;1.40;;;1.00;;
3747;SDS011;1889;50.058;8.688;2022-10-16T05:57:43;1.57;;;1.47;;
3747;SDS011;1889;50.058;8.688;2022-10-16T06:00:12;2.35;;;1.30;;
3747;SDS011;1889;50.058;8.688;2022-10-16T06:02:41;1.67;;;1.55;;
3747;SDS011;1889;50.058;8.688;2022-10-16T06:05:11;1.98;;;1.70;;
3747;SDS011;1889;50.058;8.688;2022-10-16T06:07:40;1.70;;;1.60;;
3747;SDS011;1889;50.058;8.688;2022-10-16T06:10:10;2.17;;;1.80;;
3747;SDS011;1889;50.058;8.688;2022-10-16T06:12:39;1.87;;;1.77;;
3747;SDS011;1889;50.058;8.688;2022-10-16T06:15:08;2.30;;;1.72;;
3747;SDS011;1889;50.058;8.688;2022-10-16T06:17:38;1.70;;;1.50;;
3747;SDS011;1889;50.058;8.688;2022-10-16T06:20:07;2.42;;;1.15;;
3747;SDS011;1889;50.058;8.688;2022-10-16T06:22:37;1.32;;;1.12;;
3747;SDS011;1889;50.058;8.688;2022-10-16T06:25:06;2.30;;;1.65;;
3747;SDS011;1889;50.058;8.688;2022-10-16T06:27:36;1.95;;;1.80;;
3747;SDS011;1889;50.058;8.688;2022-10-16T06:30:07;2.10;;;1.90;;
3747;SDS011;1889;50.058;8.688;2022-10-16T06:32:38;2.60;;;1.98;;
3747;SDS011;1889;50.058;8.688;2022-10-16T06:35:07;3.10;;;1.92;;
3747;SDS011;1889;50.058;8.688;2022-10-16T06:37:37;2.05;;;1.85;;
3747;SDS011;1889;50.058;8.688;2022-10-16T06:40:06;2.47;;;1.67;;
3747;SDS011;1889;50.058;8.688;2022-10-16T06:42:36;1.90;;;1.70;;
3747;SDS011;1889;50.058;8.688;2022-10-16T06:45:05;2.65;;;2.00;;
3747;SDS011;1889;50.058;8.688;2022-10-16T06:47:38;2.90;;;2.33;;
3747;SDS011;1889;50.058;8.688;2022-10-16T06:50:07;2.05;;;1.95;;
3747;SDS011;1889;50.058;8.688;2022-10-16T06:52:37;2.30;;;2.10;;
3747;SDS011;1889;50.058;8.688;2022-10-16T06:55:06;3.33;;;2.35;;
3747;SDS011;1889;50.058;8.688;2022-10-16T06:57:36;3.15;;;2.22;;
3747;SDS011;1889;50.058;8.688;2022-10-16T07:00:05;2.12;;;1.90;;
3747;SDS011;1889;50.058;8.688;2022-10-16T07:02:35;2.67;;;1.90;;
3747;SDS011;1889;50.058;8.688;2022-10-16T07:05:04;2.58;;;2.15;;
3747;SDS011;1889;50.058;8.688;2022-10-16T07:07:34;3.72;;;2.00;;
3747;SDS011;1889;50.058;8.688;2022-10-16T07:10:04;2.30;;;2.02;;
3747;SDS011;1889;50.058;8.688;2022-10-16T07:12:33;2.40;;;2.20;;
3747;SDS011;1889;50.058;8.688;2022-10-16T07:15:03;2.33;;;2.00;;
3747;SDS011;1889;50.058;8.688;2022-10-16T07:17:32;2.77;;;1.92;;
3747;SDS011;1889;50.058;8.688;2022-10-16T07:20:02;3.08;;;2.25;;
3747;SDS011;1889;50.058;8.688;2022-10-16T07:22:31;2.30;;;2.10;;
3747;SDS011;1889;50.058;8.688;2022-10-16T07:25:01;2.30;;;2.10;;
3747;SDS011;1889;50.058;8.688;2022-10-16T07:27:30;2.12;;;1.92;;
3747;SDS011;1889;50.058;8.688;2022-10-16T07:29:59;1.70;;;1.60;;
3747;SDS011;1889;50.058;8.688;2022-10-16T07:32:29;3.05;;;2.35;;
3747;SDS011;1889;50.058;8.688;2022-10-16T07:34:59;2.05;;;1.87;;
3747;SDS011;1889;50.058;8.688;2022-10-16T07:37:28;2.27;;;2.08;;
3747;SDS011;1889;50.058;8.688;2022-10-16T07:39:57;4.15;;;2.10;;
3747;SDS011;1889;50.058;8.688;2022-10-16T07:42:27;2.58;;;2.00;;
3747;SDS011;1889;50.058;8.688;2022-10-16T07:44:56;2.75;;;1.85;;
3747;SDS011;1889;50.058;8.688;2022-10-16T07:47:26;2.17;;;1.57;;
3747;SDS011;1889;50.058;8.688;2022-10-16T07:49:55;3.15;;;2.12;;
3747;SDS011;1889;50.058;8.688;2022-10-16T07:52:24;2.25;;;2.05;;
3747;SDS011;1889;50.058;8.688;2022-10-16T07:54:54;4.78;;;2.12;;
3747;SDS011;1889;50.058;8.688;2022-10-16T07:57:23;2.05;;;1.85;;
3747;SDS011;1889;50.058;8.688;2022-10-16T07:59:52;2.72;;;2.20;;
3747;SDS011;1889;50.058;8.688;2022-10-16T08:02:21;3.87;;;2.47;;
3747;SDS011;1889;50.058;8.688;2022-10-16T08:04:51;3.10;;;2.20;;
3747;SDS011;1889;50.058;8.688;2022-10-16T08:07:20;1.82;;;1.72;;
3747;SDS011;1889;50.058;8.688;2022-10-16T08:09:49;3.83;;;2.15;;
3747;SDS011;1889;50.058;8.688;2022-10-16T08:12:19;1.90;;;1.70;;
3747;SDS011;1889;50.058;8.688;2022-10-16T08:14:49;1.77;;;1.67;;
3747;SDS011;1889;50.058;8.688;2022-10-16T08:17:18;2.10;;;1.90;;
3747;SDS011;1889;50.058;8.688;2022-10-16T08:19:47;2.15;;;2.02;;
3747;SDS011;1889;50.058;8.688;2022-10-16T08:22:17;3.20;;;2.20;;
3747;SDS011;1889;50.058;8.688;2022-10-16T08:24:47;2.80;;;2.25;;
3747;SDS011;1889;50.058;8.688;2022-10-16T08:27:16;2.55;;;2.35;;
3747;SDS011;1889;50.058;8.688;2022-10-16T08:29:45;2.37;;;2.17;;
3747;SDS011;1889;50.058;8.688;2022-10-16T08:32:16;2.15;;;2.05;;
3747;SDS011;1889;50.058;8.688;2022-10-16T08:34:46;2.92;;;2.33;;
3747;SDS011;1889;50.058;8.688;2022-10-16T08:37:15;2.42;;;2.27;;
3747;SDS011;1889;50.058;8.688;2022-10-16T08:39:45;2.50;;;2.20;;
3747;SDS011;1889;50.058;8.688;2022-10-16T08:42:16;3.17;;;2.85;;
3747;SDS011;1889;50.058;8.688;2022-10-16T08:47:25;3.25;;;2.95;;
3747;SDS011;1889;50.058;8.688;2022-10-16T08:50:00;3.75;;;3.00;;
3747;SDS011;1889;50.058;8.688;2022-10-16T08:52:32;4.80;;;3.08;;
3747;SDS011;1889;50.058;8.688;2022-10-16T08:55:03;3.85;;;3.15;;
3747;SDS011;1889;50.058;8.688;2022-10-16T08:57:35;3.30;;;2.87;;
3747;SDS011;1889;50.058;8.688;2022-10-16T09:00:15;3.33;;;3.00;;
3747;SDS011;1889;50.058;8.688;2022-10-16T09:02:46;3.17;;;2.90;;
3747;SDS011;1889;50.058;8.688;2022-10-16T09:08:15;3.62;;;3.20;;
3747;SDS011;1889;50.058;8.688;2022-10-16T09:10:54;3.12;;;2.85;;
3747;SDS011;1889;50.058;8.688;2022-10-16T09:16:19;3.45;;;3.15;;
3747;SDS011;1889;50.058;8.688;2022-10-16T09:21:29;3.50;;;3.20;;
3747;SDS011;1889;50.058;8.688;2022-10-16T09:24:00;3.92;;;3.62;;
3747;SDS011;1889;50.058;8.688;2022-10-16T09:26:42;3.98;;;3.47;;
3747;SDS011;1889;50.058;8.688;2022-10-16T09:29:12;5.40;;;4.53;;
3747;SDS011;1889;50.058;8.688;2022-10-16T09:31:42;4.85;;;4.45;;
3747;SDS011;1889;50.058;8.688;2022-10-16T09:37:00;5.72;;;4.67;;
3747;SDS011;1889;50.058;8.688;2022-10-16T09:39:43;7.55;;;4.65;;
3747;SDS011;1889;50.058;8.688;2022-10-16T09:42:16;5.15;;;4.30;;
3747;SDS011;1889;50.058;8.688;2022-10-16T09:44:48;5.05;;;4.55;;
3747;SDS011;1889;50.058;8.688;2022-10-16T09:47:21;4.72;;;4.22;;
3747;SDS011;1889;50.058;8.688;2022-10-16T09:49:54;5.05;;;4.28;;
3747;SDS011;1889;50.058;8.688;2022-10-16T09:52:26;6.20;;;4.40;;
3747;SDS011;1889;50.058;8.688;2022-10-16T09:55:02;4.95;;;4.45;;
3747;SDS011;1889;50.058;8.688;2022-10-16T09:57:27;5.35;;;4.53;;
3747;SDS011;1889;50.058;8.688;2022-10-16T09:59:58;4.87;;;4.37;;
3747;SDS011;1889;50.058;8.688;2022-10-16T10:02:30;4.15;;;3.52;;
3747;SDS011;1889;50.058;8.688;2022-10-16T10:05:01;4.25;;;3.67;;
3747;SDS011;1889;50.058;8.688;2022-10-16T10:07:37;4.15;;;3.75;;
3747;SDS011;1889;50.058;8.688;2022-10-16T10:10:27;5.30;;;4.12;;
3747;SDS011;1889;50.058;8.688;2022-10-16T10:12:58;4.92;;;4.17;;
3747;SDS011;1889;50.058;8.688;2022-10-16T10:15:29;5.03;;;4.53;;
3747;SDS011;1889;50.058;8.688;2022-10-16T10:18:00;5.37;;;4.87;;
3747;SDS011;1889;50.058;8.688;2022-10-16T10:20:31;8.35;;;5.80;;
3747;SDS011;1889;50.058;8.688;2022-10-16T10:23:18;5.95;;;5.37;;
3747;SDS011;1889;50.058;8.688;2022-10-16T10:26:05;4.90;;;4.45;;
3747;SDS011;1889;50.058;8.688;2022-10-16T10:37:10;5.70;;;5.20;;
3747;SDS011;1889;50.058;8.688;2022-10-16T10:40:21;5.45;;;4.78;;
3747;SDS011;1889;50.058;8.688;2022-10-16T10:42:27;6.33;;;5.72;;
3747;SDS011;1889;50.058;8.688;2022-10-16T10:56:23;5.60;;;5.10;;
3747;SDS011;1889;50.058;8.688;2022-10-16T11:01:45;5.22;;;4.65;;
3747;SDS011;1889;50.058;8.688;2022-10-16T11:04:20;6.42;;;5.37;;
3747;SDS011;1889;50.058;8.688;2022-10-16T11:07:02;6.60;;;5.90;;
3747;SDS011;1889;50.058;8.688;2022-10-16T11:09:40;6.17;;;5.58;;
3747;SDS011;1889;50.058;8.688;2022-10-16T11:20:45;4.53;;;4.12;;
3747;SDS011;1889;50.058;8.688;2022-10-16T11:23:14;5.65;;;4.53;;
3747;SDS011;1889;50.058;8.688;2022-10-16T11:26:03;4.15;;;3.85;;
3747;SDS011;1889;50.058;8.688;2022-10-16T11:28:46;5.72;;;4.45;;
3747;SDS011;1889;50.058;8.688;2022-10-16T11:31:26;4.03;;;3.70;;
3747;SDS011;1889;50.058;8.688;2022-10-16T11:34:09;3.80;;;3.50;;
3747;SDS011;1889;50.058;8.688;2022-10-16T11:39:36;4.37;;;4.00;;
3747;SDS011;1889;50.058;8.688;2022-10-16T11:42:21;3.37;;;3.17;;
3747;SDS011;1889;50.058;8.688;2022-10-16T11:45:13;2.22;;;2.12;;
3747;SDS011;1889;50.058;8.688;2022-10-16T11:47:41;2.62;;;2.42;;
3747;SDS011;1889;50.058;8.688;2022-10-16T11:50:32;2.33;;;2.00;;
3747;SDS011;1889;50.058;8.688;2022-10-16T11:55:46;3.00;;;2.80;;
3747;SDS011;1889;50.058;8.688;2022-10-16T12:04:05;2.30;;;2.10;;
3747;SDS011;1889;50.058;8.688;2022-10-16T12:06:45;2.87;;;2.67;;
3747;SDS011;1889;50.058;8.688;2022-10-16T12:09:32;2.47;;;2.27;;
3747;SDS011;1889;50.058;8.688;2022-10-16T12:12:02;2.80;;;2.50;;
3747;SDS011;1889;50.058;8.688;2022-10-16T12:17:27;2.17;;;1.97;;
3747;SDS011;1889;50.058;8.688;2022-10-16T12:20:17;1.82;;;1.67;;
3747;SDS011;1889;50.058;8.688;2022-10-16T12:22:30;1.50;;;1.40;;
3747;SDS011;1889;50.058;8.688;2022-10-16T12:25:00;1.50;;;1.40;;
3747;SDS011;1889;50.058;8.688;2022-10-16T12:27:30;2.90;;;1.50;;
3747;SDS011;1889;50.058;8.688;2022-10-16T12:30:03;1.40;;;1.30;;
3747;SDS011;1889;50.058;8.688;2022-10-16T12:32:35;1.40;;;1.33;;
3747;SDS011;1889;50.058;8.688;2022-10-16T12:35:54;1.63;;;1.53;;
3747;SDS011;1889;50.058;8.688;2022-10-16T12:37:51;1.07;;;1.07;;
3747;SDS011;1889;50.058;8.688;2022-10-16T12:40:25;1.30;;;1.20;;
3747;SDS011;1889;50.058;8.688;2022-10-16T12:42:56;1.13;;;1.10;;
3747;SDS011;1889;50.058;8.688;2022-10-16T12:45:26;1.20;;;1.10;;
3747;SDS011;1889;50.058;8.688;2022-10-16T12:48:01;1.27;;;1.17;;
3747;SDS011;1889;50.058;8.688;2022-10-16T12:50:36;1.43;;;1.30;;
3747;SDS011;1889;50.058;8.688;2022-10-16T12:53:17;1.40;;;1.20;;
3747;SDS011;1889;50.058;8.688;2022-10-16T12:55:51;1.17;;;1.00;;
3747;SDS011;1889;50.058;8.688;2022-10-16T13:01:02;1.67;;;1.00;;
3747;SDS011;1889;50.058;8.688;2022-10-16T13:03:44;0.80;;;0.80;;
3747;SDS011;1889;50.058;8.688;2022-10-16T13:09:17;1.93;;;1.00;;
3747;SDS011;1889;50.058;8.688;2022-10-16T13:15:16;2.13;;;1.50;;
3747;SDS011;1889;50.058;8.688;2022-10-16T13:17:59;1.43;;;1.33;;
3747;SDS011;1889;50.058;8.688;2022-10-16T13:26:23;1.13;;;1.03;;
3747;SDS011;1889;50.058;8.688;2022-10-16T13:28:58;1.23;;;1.20;;
3747;SDS011;1889;50.058;8.688;2022-10-16T13:31:28;1.00;;;1.00;;
3747;SDS011;1889;50.058;8.688;2022-10-16T13:33:59;0.90;;;0.90;;
3747;SDS011;1889;50.058;8.688;2022-10-16T13:36:30;1.00;;;0.90;;
3747;SDS011;1889;50.058;8.688;2022-10-16T13:39:10;1.17;;;1.10;;
3747;SDS011;1889;50.058;8.688;2022-10-16T13:41:38;1.03;;;1.03;;
3747;SDS011;1889;50.058;8.688;2022-10-16T13:44:13;1.33;;;1.23;;
3747;SDS011;1889;50.058;8.688;2022-10-16T13:46:43;1.23;;;1.17;;
3747;SDS011;1889;50.058;8.688;2022-10-16T13:49:13;1.13;;;1.03;;
3747;SDS011;1889;50.058;8.688;2022-10-16T13:51:56;0.90;;;0.90;;
3747;SDS011;1889;50.058;8.688;2022-10-16T13:54:27;1.10;;;1.10;;
3747;SDS011;1889;50.058;8.688;2022-10-16T13:57:04;1.20;;;1.00;;
3747;SDS011;1889;50.058;8.688;2022-10-16T13:59:36;1.30;;;1.20;;
3747;SDS011;1889;50.058;8.688;2022-10-16T14:02:10;1.10;;;1.00;;
3747;SDS011;1889;50.058;8.688;2022-10-16T14:04:43;1.67;;;1.57;;
3747;SDS011;1889;50.058;8.688;2022-10-16T14:07:13;1.20;;;1.20;;
3747;SDS011;1889;50.058;8.688;2022-10-16T14:09:47;1.40;;;1.30;;
3747;SDS011;1889;50.058;8.688;2022-10-16T14:12:17;0.90;;;0.90;;
3747;SDS011;1889;50.058;8.688;2022-10-16T14:14:47;0.80;;;0.80;;
3747;SDS011;1889;50.058;8.688;2022-10-16T14:17:19;1.30;;;1.20;;
3747;SDS011;1889;50.058;8.688;2022-10-16T14:20:00;1.10;;;1.10;;
3747;SDS011;1889;50.058;8.688;2022-10-16T14:22:34;1.13;;;1.13;;
3747;SDS011;1889;50.058;8.688;2022-10-16T14:28:13;1.30;;;1.20;;
3747;SDS011;1889;50.058;8.688;2022-10-16T14:30:49;1.93;;;1.10;;
3747;SDS011;1889;50.058;8.688;2022-10-16T14:36:05;1.30;;;1.23;;
3747;SDS011;1889;50.058;8.688;2022-10-16T14:38:39;3.00;;;2.40;;
3747;SDS011;1889;50.058;8.688;2022-10-16T14:41:10;1.53;;;1.43;;
3747;SDS011;1889;50.058;8.688;2022-10-16T14:43:39;0.93;;;0.93;;
3747;SDS011;1889;50.058;8.688;2022-10-16T14:46:16;1.43;;;1.27;;
3747;SDS011;1889;50.058;8.688;2022-10-16T14:48:43;1.23;;;1.20;;
3747;SDS011;1889;50.058;8.688;2022-10-16T14:51:14;1.53;;;1.30;;
3747;SDS011;1889;50.058;8.688;2022-10-16T14:53:44;1.40;;;1.30;;
3747;SDS011;1889;50.058;8.688;2022-10-16T14:56:21;1.20;;;1.10;;
3747;SDS011;1889;50.058;8.688;2022-10-16T14:58:51;1.40;;;1.30;;
3747;SDS011;1889;50.058;8.688;2022-10-16T15:01:21;1.50;;;1.40;;
3747;SDS011;1889;50.058;8.688;2022-10-16T15:03:50;1.33;;;1.23;;
3747;SDS011;1889;50.058;8.688;2022-10-16T15:06:21;1.97;;;1.77;;
3747;SDS011;1889;50.058;8.688;2022-10-16T15:08:50;3.30;;;2.00;;
3747;SDS011;1889;50.058;8.688;2022-10-16T15:11:19;2.80;;;1.60;;
3747;SDS011;1889;50.058;8.688;2022-10-16T15:13:48;2.30;;;1.83;;
3747;SDS011;1889;50.058;8.688;2022-10-16T15:16:17;3.80;;;2.47;;
3747;SDS011;1889;50.058;8.688;2022-10-16T15:18:46;1.63;;;1.53;;
3747;SDS011;1889;50.058;8.688;2022-10-16T15:21:28;1.90;;;1.70;;
3747;SDS011;1889;50.058;8.688;2022-10-16T15:23:59;2.20;;;1.70;;
3747;SDS011;1889;50.058;8.688;2022-10-16T15:26:29;1.80;;;1.70;;
3747;SDS011;1889;50.058;8.688;2022-10-16T15:28:59;2.20;;;2.00;;
3747;SDS011;1889;50.058;8.688;2022-10-16T15:31:28;1.70;;;1.60;;
3747;SDS011;1889;50.058;8.688;2022-10-16T15:33:57;2.20;;;1.93;;
3747;SDS011;1889;50.058;8.688;2022-10-16T15:36:28;3.07;;;1.90;;
3747;SDS011;1889;50.058;8.688;2022-10-16T15:39:02;2.10;;;1.90;;
3747;SDS011;1889;50.058;8.688;2022-10-16T15:41:33;2.50;;;2.10;;
3747;SDS011;1889;50.058;8.688;2022-10-16T15:44:02;1.73;;;1.63;;
3747;SDS011;1889;50.058;8.688;2022-10-16T15:46:31;1.60;;;1.50;;
3747;SDS011;1889;50.058;8.688;2022-10-16T15:49:01;2.10;;;1.90;;
3747;SDS011;1889;50.058;8.688;2022-10-16T15:51:31;2.20;;;1.70;;
3747;SDS011;1889;50.058;8.688;2022-10-16T15:54:01;3.47;;;2.13;;
3747;SDS011;1889;50.058;8.688;2022-10-16T15:56:30;2.27;;;2.07;;
3747;SDS011;1889;50.058;8.688;2022-10-16T15:59:00;2.20;;;2.00;;
3747;SDS011;1889;50.058;8.688;2022-10-16T16:01:32;1.70;;;1.60;;
3747;SDS011;1889;50.058;8.688;2022-10-16T16:04:01;2.83;;;2.63;;
3747;SDS011;1889;50.058;8.688;2022-10-16T16:06:31;1.77;;;1.67;;
3747;SDS011;1889;50.058;8.688;2022-10-16T16:09:01;2.10;;;1.90;;
3747;SDS011;1889;50.058;8.688;2022-10-16T16:11:30;2.10;;;1.90;;
3747;SDS011;1889;50.058;8.688;2022-10-16T16:14:01;1.70;;;1.60;;
3747;SDS011;1889;50.058;8.688;2022-10-16T16:16:33;2.52;;;2.10;;
3747;SDS011;1889;50.058;8.688;2022-10-16T16:19:05;2.80;;;2.60;;
3747;SDS011;1889;50.058;8.688;2022-10-16T16:21:34;3.83;;;3.47;;
3747;SDS011;1889;50.058;8.688;2022-10-16T16:24:03;2.80;;;2.60;;
3747;SDS011;1889;50.058;8.688;2022-10-16T16:26:34;2.87;;;2.67;;
3747;SDS011;1889;50.058;8.688;2022-10-16T16:29:06;2.83;;;2.37;;
3747;SDS011;1889;50.058;8.688;2022-10-16T16:31:35;2.53;;;2.30;;
3747;SDS011;1889;50.058;8.688;2022-10-16T16:34:04;2.67;;;2.40;;
3747;SDS011;1889;50.058;8.688;2022-10-16T16:36:33;4.47;;;2.77;;
3747;SDS011;1889;50.058;8.688;2022-10-16T16:39:04;2.57;;;2.37;;
3747;SDS011;1889;50.058;8.688;2022-10-16T16:41:33;2.20;;;2.00;;
3747;SDS011;1889;50.058;8.688;2022-10-16T16:44:03;2.80;;;2.17;;
3747;SDS011;1889;50.058;8.688;2022-10-16T16:46:34;2.33;;;2.00;;
3747;SDS011;1889;50.058;8.688;2022-10-16T16:49:04;4.77;;;2.20;;
3747;SDS011;1889;50.058;8.688;2022-10-16T16:51:34;2.33;;;2.13;;
3747;SDS011;1889;50.058;8.688;2022-10-16T16:54:03;2.40;;;2.20;;
3747;SDS011;1889;50.058;8.688;2022-10-16T16:56:34;2.07;;;1.83;;
3747;SDS011;1889;50.058;8.688;2022-10-16T16:59:04;4.12;;;1.92;;
3747;SDS011;1889;50.058;8.688;2022-10-16T17:01:33;2.08;;;1.87;;
3747;SDS011;1889;50.058;8.688;2022-10-16T17:04:03;1.67;;;1.57;;
3747;SDS011;1889;50.058;8.688;2022-10-16T17:06:33;6.23;;;2.27;;
3747;SDS011;1889;50.058;8.688;2022-10-16T17:09:03;2.63;;;2.37;;
3747;SDS011;1889;50.058;8.688;2022-10-16T17:11:33;3.13;;;1.90;;
3747;SDS011;1889;50.058;8.688;2022-10-16T17:14:03;2.00;;;1.90;;
3747;SDS011;1889;50.058;8.688;2022-10-16T17:16:33;2.97;;;1.93;;
3747;SDS011;1889;50.058;8.688;2022-10-16T17:19:04;3.00;;;2.53;;